Terminal Aerodrome Forecast
Issued by NWS

Home | Current Version | Previous Version | Text Only | Print | Product List | Glossary On
Versions: 1 2 3 4 5 6 7 8 9 10 11 12 13 14
244
FTUS45 KRIW 260520
TAFRKS
TAF
KRKS 260520Z 2606/2706 25011KT P6SM -RA SCT014 BKN045
      TEMPO 2606/2608 BKN014
     FM260900 29012KT P6SM SCT035 BKN060
     FM261600 27008KT P6SM SCT060 SCT100
     FM270100 26006KT P6SM SCT080 BKN150=

USA.gov is the U.S. government's official web portal to all federal, state and local government web resources and services.